createdAt,value
2018-09-29T00:00:53.625Z,99.90
2018-09-29T00:03:24.146Z,99.90
2018-09-29T00:12:54.906Z,99.90
2018-09-29T00:15:26.269Z,99.90
2018-09-29T00:17:57.905Z,99.90
2018-09-29T00:20:28.968Z,99.90
2018-09-29T00:22:59.694Z,99.90
2018-09-29T00:25:30.332Z,99.90
2018-09-29T00:28:01.895Z,99.90
2018-09-29T00:30:34.107Z,99.90
2018-09-29T00:33:04.660Z,99.90
2018-09-29T00:35:35.793Z,99.90
2018-09-29T00:38:06.425Z,99.90
2018-09-29T00:40:37.542Z,99.90
2018-09-29T00:43:08.308Z,99.90
2018-09-29T00:45:38.719Z,99.90
2018-09-29T00:48:09.738Z,99.90
2018-09-29T00:50:40.023Z,99.90
2018-09-29T00:53:10.822Z,99.90
2018-09-29T00:55:41.839Z,99.90
2018-09-29T00:58:12.202Z,99.90
2018-09-29T01:00:43.387Z,99.90
2018-09-29T01:03:13.988Z,99.90
2018-09-29T01:05:44.982Z,99.90
2018-09-29T01:08:16.030Z,99.90
2018-09-29T01:10:46.546Z,99.90
2018-09-29T01:13:17.909Z,99.90
2018-09-29T01:15:48.352Z,99.90
2018-09-29T01:18:19.041Z,99.90
2018-09-29T01:20:49.590Z,99.90
2018-09-29T01:23:20.170Z,99.90
2018-09-29T01:25:50.269Z,99.90
2018-09-29T01:28:21.902Z,99.90
2018-09-29T01:30:52.145Z,99.90
2018-09-29T01:33:23.979Z,99.90
2018-09-29T01:35:55.364Z,99.90
2018-09-29T01:38:26.893Z,99.90
2018-09-29T01:40:56.968Z,99.90
2018-09-29T01:43:28.016Z,99.90
2018-09-29T01:45:58.205Z,99.90
2018-09-29T01:48:29.478Z,99.90
2018-09-29T01:51:00.347Z,99.90
2018-09-29T01:53:32.182Z,99.90
2018-09-29T01:56:04.065Z,99.90
2018-09-29T01:58:34.363Z,99.90
2018-09-29T02:01:04.796Z,99.90
2018-09-29T02:03:36.421Z,99.90
2018-09-29T02:06:07.638Z,99.90
2018-09-29T02:08:38.740Z,99.90
2018-09-29T02:11:09.983Z,99.90
2018-09-29T02:13:40.463Z,99.90
2018-09-29T02:16:11.384Z,99.90
2018-09-29T02:18:42.108Z,99.90
2018-09-29T02:21:12.467Z,99.90
2018-09-29T02:23:42.689Z,99.90
2018-09-29T02:26:13.623Z,99.90
2018-09-29T02:28:43.853Z,99.90
2018-09-29T02:31:14.563Z,99.90
2018-09-29T02:33:45.569Z,99.90
2018-09-29T02:36:16.321Z,99.90
2018-09-29T02:38:47.186Z,99.90
2018-09-29T02:41:17.945Z,99.90
2018-09-29T02:43:48.386Z,99.90
2018-09-29T02:46:19.449Z,99.90
2018-09-29T02:48:50.614Z,99.90
2018-09-29T02:51:21.462Z,99.90
2018-09-29T02:53:52.064Z,99.90
2018-09-29T02:56:22.789Z,99.90
2018-09-29T02:58:53.825Z,99.90
2018-09-29T03:01:24.788Z,99.90
2018-09-29T03:03:55.316Z,99.90
2018-09-29T03:06:26.330Z,99.90
2018-09-29T03:08:57.366Z,99.90
2018-09-29T03:11:27.787Z,99.90
2018-09-29T03:13:58.909Z,99.90
2018-09-29T03:16:29.483Z,99.90
2018-09-29T03:19:00.577Z,99.90
2018-09-29T03:21:31.610Z,99.90
2018-09-29T03:24:02.023Z,99.90
2018-09-29T03:26:32.620Z,99.90
2018-09-29T03:29:03.355Z,99.90
2018-09-29T03:31:34.869Z,99.90
2018-09-29T03:34:05.390Z,99.90
2018-09-29T03:36:36.740Z,99.90
2018-09-29T03:39:10.381Z,99.90
2018-09-29T03:41:41.548Z,99.90
2018-09-29T03:44:12.354Z,99.90
2018-09-29T03:46:43.028Z,99.90
2018-09-29T03:49:13.963Z,99.90
2018-09-29T03:51:44.375Z,99.90
2018-09-29T03:54:14.804Z,99.90
2018-09-29T03:56:45.013Z,99.90
2018-09-29T03:59:15.984Z,99.90
2018-09-29T04:01:47.383Z,99.90
2018-09-29T04:04:18.388Z,99.90
2018-09-29T04:06:48.507Z,99.90
2018-09-29T04:09:19.268Z,99.90
2018-09-29T04:11:50.125Z,99.90
2018-09-29T04:14:21.587Z,99.90
2018-09-29T04:16:52.596Z,99.90
2018-09-29T04:19:23.904Z,99.90
2018-09-29T04:21:54.746Z,99.90
2018-09-29T04:24:25.987Z,99.90
2018-09-29T04:26:57.306Z,99.90
2018-09-29T04:29:29.142Z,99.90
2018-09-29T04:31:59.673Z,99.90
2018-09-29T04:34:31.388Z,99.90
2018-09-29T04:37:02.106Z,99.90
2018-09-29T04:39:32.525Z,99.90
2018-09-29T04:42:03.222Z,99.90
2018-09-29T04:44:34.250Z,99.90
2018-09-29T04:47:05.424Z,99.90
2018-09-29T04:49:36.182Z,99.90
2018-09-29T04:52:07.686Z,99.90
2018-09-29T04:54:38.726Z,99.90
2018-09-29T04:57:09.328Z,99.90
2018-09-29T04:59:40.985Z,99.90
2018-09-29T05:02:11.861Z,99.90
2018-09-29T05:04:43.027Z,99.90
2018-09-29T05:07:13.825Z,99.90
2018-09-29T05:09:46.246Z,99.90
2018-09-29T05:12:17.611Z,99.90
2018-09-29T05:14:47.742Z,99.90
2018-09-29T05:17:18.422Z,99.90
2018-09-29T05:19:48.924Z,99.90
2018-09-29T05:22:19.923Z,99.90
2018-09-29T05:24:50.384Z,99.90
2018-09-29T05:27:21.022Z,99.90
2018-09-29T05:29:51.982Z,99.90
2018-09-29T05:32:23.010Z,99.90
2018-09-29T05:34:53.785Z,99.90
2018-09-29T05:37:25.146Z,99.90
2018-09-29T05:39:55.791Z,99.90
2018-09-29T05:42:26.726Z,99.90
2018-09-29T05:44:57.428Z,99.90
2018-09-29T05:47:28.006Z,99.90
2018-09-29T05:49:58.987Z,99.90
2018-09-29T05:52:29.668Z,99.90
2018-09-29T05:54:59.911Z,99.90
2018-09-29T05:57:30.735Z,99.90
2018-09-29T06:00:01.584Z,99.90
2018-09-29T06:02:32.992Z,99.90
2018-09-29T06:05:03.980Z,99.90
2018-09-29T06:07:35.467Z,99.90
2018-09-29T06:10:06.516Z,99.90
2018-09-29T06:12:37.736Z,99.90
2018-09-29T06:15:08.568Z,99.90
2018-09-29T06:17:39.907Z,99.90
2018-09-29T06:20:10.905Z,99.90
2018-09-29T06:22:41.116Z,99.90
2018-09-29T06:25:11.504Z,99.90
2018-09-29T06:27:42.269Z,99.90
2018-09-29T06:30:12.127Z,99.90
2018-09-29T06:32:43.277Z,99.90
2018-09-29T06:35:14.428Z,99.90
2018-09-29T06:37:44.930Z,99.90
2018-09-29T06:40:15.735Z,99.90
2018-09-29T06:42:46.705Z,99.90
2018-09-29T06:45:16.761Z,99.90
2018-09-29T06:47:47.790Z,99.90
2018-09-29T06:50:18.563Z,99.90
2018-09-29T06:52:49.326Z,99.90
2018-09-29T06:55:19.552Z,99.90
2018-09-29T06:57:49.832Z,99.90
2018-09-29T07:00:21.252Z,99.90
2018-09-29T07:02:51.968Z,99.90
2018-09-29T07:05:24.006Z,99.90
2018-09-29T07:07:54.970Z,99.90
2018-09-29T07:10:26.042Z,99.90
2018-09-29T07:12:57.211Z,99.90
2018-09-29T07:15:27.706Z,99.90
2018-09-29T07:17:58.938Z,99.90
2018-09-29T07:20:29.770Z,99.90
2018-09-29T07:23:01.835Z,99.90
2018-09-29T07:25:33.113Z,99.90
2018-09-29T07:28:03.988Z,98.80
2018-09-29T07:30:41.168Z,95.70
2018-09-29T07:33:11.805Z,92.70
2018-09-29T07:35:45.935Z,89.20
2018-09-29T07:38:17.827Z,88.40
2018-09-29T07:40:52.845Z,86.10
2018-09-29T07:43:23.388Z,82.30
2018-09-29T07:45:55.912Z,79.60
2018-09-29T07:48:26.709Z,80.00
2018-09-29T07:50:56.944Z,76.80
2018-09-29T07:53:27.745Z,72.00
2018-09-29T07:55:58.233Z,73.20
2018-09-29T07:58:28.885Z,68.90
2018-09-29T08:01:00.574Z,66.10
2018-09-29T08:03:30.943Z,62.70
2018-09-29T08:06:01.746Z,61.10
2018-09-29T08:08:32.298Z,59.30
2018-09-29T08:11:02.732Z,60.90
2018-09-29T08:13:33.940Z,58.60
2018-09-29T08:16:04.998Z,56.60
2018-09-29T08:18:36.427Z,55.90
2018-09-29T08:21:07.436Z,55.80
2018-09-29T08:23:38.394Z,56.90
2018-09-29T08:26:09.757Z,57.90
2018-09-29T08:28:40.150Z,56.70
2018-09-29T08:31:11.226Z,54.10
2018-09-29T08:33:42.744Z,54.50
2018-09-29T08:36:14.323Z,53.80
2018-09-29T08:38:45.490Z,51.40
2018-09-29T08:41:17.068Z,53.60
2018-09-29T08:43:48.007Z,52.00
2018-09-29T08:46:18.665Z,54.10
2018-09-29T08:48:49.414Z,51.60
2018-09-29T08:51:20.421Z,50.40
2018-09-29T08:53:51.276Z,50.90
2018-09-29T08:56:22.107Z,49.70
2018-09-29T08:58:52.836Z,49.10
2018-09-29T09:01:24.429Z,49.10
2018-09-29T09:03:55.274Z,48.50
2018-09-29T09:06:26.858Z,50.10
2018-09-29T09:08:59.324Z,50.40
2018-09-29T09:11:30.062Z,50.20
2018-09-29T09:14:00.942Z,50.20
2018-09-29T09:16:34.618Z,49.00
2018-09-29T09:19:05.164Z,49.10
2018-09-29T09:21:35.723Z,48.40
2018-09-29T09:24:07.480Z,47.50
2018-09-29T09:26:38.274Z,46.90
2018-09-29T09:29:08.481Z,48.90
2018-09-29T09:31:39.568Z,48.40
2018-09-29T09:34:10.012Z,47.60
2018-09-29T09:36:41.292Z,46.80
2018-09-29T09:39:13.913Z,46.70
2018-09-29T09:41:44.873Z,45.30
2018-09-29T09:44:15.367Z,44.20
2018-09-29T09:46:45.895Z,45.40
2018-09-29T09:49:17.628Z,44.10
2018-09-29T09:51:48.444Z,44.50
2018-09-29T09:54:20.125Z,43.80
2018-09-29T09:56:50.974Z,42.40
2018-09-29T09:59:21.928Z,43.50
2018-09-29T10:01:58.382Z,43.80
2018-09-29T10:04:29.970Z,44.50
2018-09-29T10:07:00.924Z,43.10
2018-09-29T10:09:31.718Z,45.30
2018-09-29T10:12:01.965Z,44.40
2018-09-29T10:14:32.963Z,45.40
2018-09-29T10:17:03.770Z,46.80
2018-09-29T10:19:34.605Z,44.90
2018-09-29T10:22:05.238Z,46.00
2018-09-29T10:24:36.638Z,45.30
2018-09-29T10:27:07.247Z,46.60
2018-09-29T10:29:37.497Z,50.00
2018-09-29T10:32:08.236Z,49.70
2018-09-29T10:34:39.473Z,50.60
2018-09-29T10:37:10.497Z,51.20
2018-09-29T10:39:42.051Z,48.70
2018-09-29T10:42:13.416Z,48.00
2018-09-29T10:44:44.784Z,47.40
2018-09-29T10:47:16.363Z,48.90
2018-09-29T10:49:47.008Z,49.40
2018-09-29T10:52:17.886Z,50.00
2018-09-29T10:54:48.567Z,51.80
2018-09-29T10:57:19.235Z,49.70
2018-09-29T10:59:51.200Z,46.90
2018-09-29T11:02:21.354Z,44.70
2018-09-29T11:04:52.812Z,47.30
2018-09-29T11:07:24.120Z,48.50
2018-09-29T11:09:54.599Z,50.60
2018-09-29T11:12:25.748Z,51.30
2018-09-29T11:14:56.510Z,51.10
2018-09-29T11:17:26.984Z,51.30
2018-09-29T11:19:57.265Z,52.60
2018-09-29T11:22:28.306Z,49.60
2018-09-29T11:24:59.649Z,47.70
2018-09-29T11:27:31.209Z,46.00
2018-09-29T11:30:02.035Z,43.80
2018-09-29T11:32:32.670Z,41.30
2018-09-29T11:35:03.705Z,39.50
2018-09-29T11:37:34.306Z,39.80
2018-09-29T11:40:04.963Z,40.30
2018-09-29T11:42:35.686Z,38.90
2018-09-29T11:45:05.853Z,39.30
2018-09-29T11:47:37.408Z,39.30
2018-09-29T11:50:08.020Z,40.10
2018-09-29T11:52:39.412Z,38.80
2018-09-29T11:55:10.115Z,37.60
2018-09-29T11:57:40.730Z,39.00
2018-09-29T12:00:11.623Z,37.50
2018-09-29T12:02:43.722Z,39.20
2018-09-29T12:05:14.653Z,39.10
2018-09-29T12:07:45.023Z,39.00
2018-09-29T12:10:16.243Z,38.20
2018-09-29T12:12:47.065Z,39.30
2018-09-29T12:15:17.456Z,39.00
2018-09-29T12:17:48.345Z,39.80
2018-09-29T12:20:18.926Z,40.10
2018-09-29T12:22:49.718Z,37.60
2018-09-29T12:25:21.442Z,37.80
2018-09-29T12:27:53.110Z,37.90
2018-09-29T12:30:24.157Z,37.70
2018-09-29T12:32:55.267Z,38.50
2018-09-29T12:35:25.756Z,38.20
2018-09-29T12:37:56.667Z,37.50
2018-09-29T12:40:27.616Z,37.50
2018-09-29T12:42:58.788Z,39.20
2018-09-29T12:45:30.109Z,36.30
2018-09-29T12:48:01.132Z,36.80
2018-09-29T12:50:31.467Z,35.30
2018-09-29T12:53:01.860Z,37.10
2018-09-29T12:55:32.963Z,38.10
2018-09-29T12:58:04.281Z,38.40
2018-09-29T13:00:34.613Z,38.40
2018-09-29T13:03:05.044Z,37.50
2018-09-29T13:05:36.115Z,37.10
2018-09-29T13:08:06.842Z,36.50
2018-09-29T13:10:37.345Z,37.80
2018-09-29T13:13:08.432Z,37.10
2018-09-29T13:15:38.609Z,36.80
2018-09-29T13:18:09.783Z,36.40
2018-09-29T13:20:40.490Z,36.00
2018-09-29T13:23:11.193Z,36.00
2018-09-29T13:25:41.975Z,36.90
2018-09-29T13:28:12.355Z,36.10
2018-09-29T13:30:43.122Z,37.40
2018-09-29T13:33:13.643Z,38.40
2018-09-29T13:35:44.448Z,40.60
2018-09-29T13:38:15.079Z,41.90
2018-09-29T13:40:45.758Z,40.80
2018-09-29T13:43:16.383Z,40.80
2018-09-29T13:45:47.219Z,40.90
2018-09-29T13:48:18.024Z,39.70
2018-09-29T13:50:48.815Z,37.30
2018-09-29T13:53:20.080Z,36.50
2018-09-29T13:55:51.051Z,36.00
2018-09-29T13:58:21.925Z,35.50
2018-09-29T14:00:53.425Z,35.20
2018-09-29T14:03:24.965Z,36.10
2018-09-29T14:05:55.501Z,35.30
2018-09-29T14:08:25.953Z,35.70
2018-09-29T14:10:56.383Z,36.80
2018-09-29T14:13:27.082Z,35.30
2018-09-29T14:15:57.935Z,35.40
2018-09-29T14:18:28.793Z,36.10
2018-09-29T14:21:00.206Z,37.10
2018-09-29T14:23:30.446Z,36.30
2018-09-29T14:26:01.025Z,36.30
2018-09-29T14:28:31.696Z,39.90
2018-09-29T14:31:02.384Z,41.20
2018-09-29T14:33:33.408Z,40.00
2018-09-29T14:36:03.996Z,39.60
2018-09-29T14:38:34.345Z,38.80
2018-09-29T14:41:05.077Z,38.40
2018-09-29T14:43:35.382Z,38.30
2018-09-29T14:46:05.524Z,37.40
2018-09-29T14:48:35.893Z,37.40
2018-09-29T14:51:06.843Z,37.50
2018-09-29T14:53:37.817Z,37.30
2018-09-29T14:56:08.434Z,36.30
2018-09-29T14:58:39.800Z,37.40
2018-09-29T15:01:10.633Z,39.40
2018-09-29T15:03:41.136Z,42.10
2018-09-29T15:06:11.788Z,42.20
2018-09-29T15:08:42.432Z,44.00
2018-09-29T15:11:12.913Z,45.10
2018-09-29T15:13:43.898Z,45.00
2018-09-29T15:16:14.496Z,46.80
2018-09-29T15:18:45.348Z,46.70
2018-09-29T15:21:15.937Z,47.20
2018-09-29T15:23:46.106Z,48.10
2018-09-29T15:26:17.356Z,48.70
2018-09-29T15:28:48.142Z,47.40
2018-09-29T15:31:19.056Z,46.10
2018-09-29T15:33:49.933Z,44.90
2018-09-29T15:36:20.419Z,44.60
2018-09-29T15:38:52.820Z,45.10
2018-09-29T15:41:23.871Z,45.00
2018-09-29T15:43:54.390Z,45.10
2018-09-29T15:46:25.695Z,44.00
2018-09-29T15:48:56.107Z,44.70
2018-09-29T15:51:27.568Z,45.20
2018-09-29T15:53:58.127Z,44.90
2018-09-29T15:56:29.037Z,44.40
2018-09-29T15:59:00.141Z,45.10
2018-09-29T16:01:30.837Z,46.40
2018-09-29T16:04:01.741Z,46.30
2018-09-29T16:06:32.178Z,46.40
2018-09-29T16:09:03.045Z,47.80
2018-09-29T16:11:33.261Z,49.80
2018-09-29T16:14:03.915Z,50.10
2018-09-29T16:16:35.606Z,52.10
2018-09-29T16:19:05.819Z,52.80
2018-09-29T16:21:36.846Z,55.40
2018-09-29T16:24:08.351Z,56.30
2018-09-29T16:26:38.936Z,57.30
2018-09-29T16:29:09.935Z,57.80
2018-09-29T16:31:40.420Z,58.60
2018-09-29T16:34:13.136Z,60.40
2018-09-29T16:36:44.111Z,61.10
2018-09-29T16:39:15.131Z,62.80
2018-09-29T16:41:45.597Z,65.00
2018-09-29T16:44:16.665Z,66.50
2018-09-29T16:46:48.121Z,68.10
2018-09-29T16:49:22.606Z,68.50
2018-09-29T16:51:52.907Z,69.30
2018-09-29T16:54:23.891Z,71.00
2018-09-29T16:56:57.143Z,72.30
2018-09-29T16:59:28.086Z,73.00
2018-09-29T17:01:58.528Z,76.30
2018-09-29T17:04:29.203Z,76.80
2018-09-29T17:07:00.252Z,78.50
2018-09-29T17:09:31.194Z,80.70
2018-09-29T17:12:03.833Z,80.60
2018-09-29T17:14:34.692Z,79.90
2018-09-29T17:17:05.745Z,81.00
2018-09-29T17:19:36.401Z,82.10
2018-09-29T17:22:07.200Z,83.50
2018-09-29T17:24:38.176Z,85.10
2018-09-29T17:27:09.683Z,86.10
2018-09-29T17:29:40.640Z,86.80
2018-09-29T17:32:11.526Z,88.50
2018-09-29T17:34:41.999Z,89.60
2018-09-29T17:37:12.694Z,90.10
2018-09-29T17:39:43.421Z,90.80
2018-09-29T17:42:13.848Z,92.10
2018-09-29T17:44:44.745Z,92.70
2018-09-29T17:47:16.424Z,93.10
2018-09-29T17:49:47.067Z,93.70
2018-09-29T17:52:18.690Z,93.90
2018-09-29T17:54:49.815Z,94.60
2018-09-29T17:57:20.986Z,95.70
2018-09-29T17:59:51.788Z,96.40
2018-09-29T18:02:23.438Z,97.40
2018-09-29T18:04:55.104Z,98.00
2018-09-29T18:07:25.977Z,98.90
2018-09-29T18:09:56.584Z,99.20
2018-09-29T18:12:27.520Z,99.40
2018-09-29T18:14:58.798Z,99.90
2018-09-29T18:17:29.646Z,99.90
2018-09-29T18:20:00.438Z,99.90
2018-09-29T18:22:31.381Z,99.90
2018-09-29T18:25:02.046Z,99.90
2018-09-29T18:27:32.615Z,99.90
2018-09-29T18:30:03.074Z,99.90
2018-09-29T18:32:33.790Z,99.90
2018-09-29T18:35:05.601Z,99.90
2018-09-29T18:37:36.439Z,99.90
2018-09-29T18:40:07.377Z,99.90
2018-09-29T18:42:39.367Z,99.90
2018-09-29T18:45:10.348Z,99.90
2018-09-29T18:47:41.867Z,99.90
2018-09-29T18:50:13.540Z,99.90
2018-09-29T18:52:44.626Z,99.90
2018-09-29T18:55:15.207Z,99.90
2018-09-29T18:57:45.749Z,99.90
2018-09-29T19:00:17.554Z,99.90
2018-09-29T19:02:48.671Z,99.90
2018-09-29T19:05:19.810Z,99.90
2018-09-29T19:07:50.647Z,99.90
2018-09-29T19:10:21.316Z,99.90
2018-09-29T19:12:53.236Z,99.90
2018-09-29T19:15:24.621Z,99.90
2018-09-29T19:17:56.166Z,99.90
2018-09-29T19:20:27.032Z,99.90
2018-09-29T19:22:58.315Z,99.90
2018-09-29T19:25:29.400Z,99.90
2018-09-29T19:28:00.143Z,99.90
2018-09-29T19:30:31.812Z,99.90
2018-09-29T19:33:02.223Z,99.90
2018-09-29T19:35:32.635Z,99.90
2018-09-29T19:38:03.327Z,99.90
2018-09-29T19:40:34.842Z,99.90
2018-09-29T19:43:05.949Z,99.90
2018-09-29T19:45:37.702Z,99.90
2018-09-29T19:48:08.030Z,99.90
2018-09-29T19:50:39.680Z,99.90
2018-09-29T19:53:10.244Z,99.90
2018-09-29T19:55:41.482Z,99.90
2018-09-29T19:58:13.439Z,99.90
2018-09-29T20:00:44.987Z,99.90
2018-09-29T20:03:15.960Z,99.90
2018-09-29T20:05:47.233Z,99.90
2018-09-29T20:08:19.078Z,99.90
2018-09-29T20:10:50.623Z,99.90
2018-09-29T20:13:21.997Z,99.90
2018-09-29T20:15:52.948Z,99.90
2018-09-29T20:18:24.606Z,99.90
2018-09-29T20:20:55.517Z,99.90
2018-09-29T20:23:26.165Z,99.90
2018-09-29T20:25:57.160Z,99.90
2018-09-29T20:28:28.306Z,99.90
2018-09-29T20:30:58.867Z,99.90
2018-09-29T20:33:29.629Z,99.90
2018-09-29T20:36:00.508Z,99.90
2018-09-29T20:38:31.590Z,99.90
2018-09-29T20:41:02.036Z,99.90
2018-09-29T20:43:33.423Z,99.90
2018-09-29T20:46:04.459Z,99.90
2018-09-29T20:48:35.561Z,99.90
2018-09-29T20:51:06.443Z,99.90
2018-09-29T20:53:37.720Z,99.90
2018-09-29T20:56:08.686Z,99.90
2018-09-29T20:58:39.713Z,99.90
2018-09-29T21:01:10.881Z,99.90
2018-09-29T21:03:41.627Z,99.90
2018-09-29T21:06:12.511Z,99.90
2018-09-29T21:08:43.991Z,99.90
2018-09-29T21:11:15.519Z,99.90
2018-09-29T21:13:46.927Z,99.90
2018-09-29T21:16:18.390Z,99.90
2018-09-29T21:18:49.279Z,99.90
2018-09-29T21:21:19.949Z,99.90
2018-09-29T21:23:50.847Z,99.90
2018-09-29T21:26:21.643Z,99.90
2018-09-29T21:28:52.239Z,99.90
2018-09-29T21:31:25.003Z,99.90
2018-09-29T21:33:55.877Z,99.90
2018-09-29T21:36:27.203Z,99.90
2018-09-29T21:38:58.187Z,99.90
2018-09-29T21:41:30.231Z,99.90
2018-09-29T21:44:01.252Z,99.90
2018-09-29T21:46:32.939Z,99.90
2018-09-29T21:49:03.969Z,99.90
2018-09-29T21:51:34.708Z,99.90
2018-09-29T21:54:05.266Z,99.90
2018-09-29T21:56:36.187Z,99.90
2018-09-29T21:59:06.705Z,99.90
2018-09-29T22:01:37.949Z,99.90
2018-09-29T22:04:08.788Z,99.90
2018-09-29T22:06:40.065Z,99.90
2018-09-29T22:09:11.064Z,99.90
2018-09-29T22:11:41.901Z,99.90
2018-09-29T22:14:13.110Z,99.90
2018-09-29T22:16:44.539Z,99.90
2018-09-29T22:19:15.233Z,99.90
2018-09-29T22:21:46.146Z,99.90
2018-09-29T22:24:16.564Z,99.90
2018-09-29T22:26:47.085Z,99.90
2018-09-29T22:29:18.067Z,99.90
2018-09-29T22:31:48.951Z,99.90
2018-09-29T22:34:20.668Z,99.90
2018-09-29T22:36:51.773Z,99.90
2018-09-29T22:39:22.755Z,99.90
2018-09-29T22:41:53.863Z,99.90
2018-09-29T22:44:24.706Z,99.90
2018-09-29T22:46:55.678Z,99.90
2018-09-29T22:49:27.121Z,99.90
2018-09-29T22:51:58.306Z,99.90
2018-09-29T22:54:29.119Z,99.90
2018-09-29T22:57:00.623Z,99.90
2018-09-29T22:59:31.883Z,99.90
2018-09-29T23:02:02.859Z,99.90
2018-09-29T23:04:34.362Z,99.90
2018-09-29T23:07:05.988Z,99.90
2018-09-29T23:09:36.958Z,99.90
2018-09-29T23:12:08.119Z,99.90
2018-09-29T23:14:39.098Z,99.90
2018-09-29T23:17:09.947Z,99.90
2018-09-29T23:19:40.948Z,99.90
2018-09-29T23:22:11.562Z,99.90
2018-09-29T23:24:41.977Z,99.90
2018-09-29T23:27:12.094Z,99.90
2018-09-29T23:29:42.441Z,99.90
2018-09-29T23:32:13.103Z,99.90
2018-09-29T23:34:44.805Z,99.90
2018-09-29T23:37:15.623Z,99.90
2018-09-29T23:39:46.426Z,99.90
2018-09-29T23:42:18.218Z,99.90
2018-09-29T23:44:49.228Z,99.90
2018-09-29T23:47:20.908Z,99.90
2018-09-29T23:49:52.281Z,99.90
2018-09-29T23:52:23.227Z,99.90
2018-09-29T23:54:54.867Z,99.90
2018-09-29T23:57:25.563Z,99.90
2018-09-29T23:59:56.280Z,99.90
